Haicheng, China
Current Conditions -  °F | °C
As of 1:00 AM on Saturday 25 Oct 2014 (Local Time) from ZYTX Reporting Station
Overcast Overcast  
Wind Chill: 64°   Ceiling: 4000
Heat Index: 64°   Visibility: 4mi
Dew Point: 52°   Wind: 9mph
Humidity: 64%   Direction: 170°S
Pressure: 29.83"   Gusts: NA
Location:  40.86°N, 122.74°E
Report Text: ZYTX 241700Z 17004MPS 130V200 6000 OVC040 18/11 Q1010 NOSIG
Loading
Personal Weather Stations






























Interactive Weather Map New forecast layout! Learn more

10-Day Weather Forecast

Advertisements
Track Severe Weather on mobile